Time;durP1;ratioP1;P1;durP2;ratioP2;P2;SDS_P1;SDS_P2;PMS_P1;PMS_P2;Temp;Humidity;BMP_temperature;BMP_pressure;BME280_temperature;BME280_humidity;BME280_pressure;Samples;Min_cycle;Max_cycle;Signal;HPM_P1;HPM_P2
2023/05/17 00:00:16;;;;;;;17.75;4.47;;;10.30;99.90;;;;;;5028580;28;20447;-82
2023/05/17 00:02:42;;;;;;;16.00;4.65;;;10.30;99.90;;;;;;5018553;28;20124;-82
2023/05/17 00:05:10;;;;;;;24.25;4.82;;;10.30;99.90;;;;;;5000319;28;20354;-83
2023/05/17 00:07:36;;;;;;;19.20;5.00;;;10.30;99.90;;;;;;5002829;28;20056;-83
2023/05/17 00:10:02;;;;;;;19.67;4.28;;;10.30;99.90;;;;;;5001518;28;20028;-82
2023/05/17 00:12:28;;;;;;;14.85;4.15;;;10.30;99.90;;;;;;4994195;28;20737;-82
2023/05/17 00:14:54;;;;;;;14.05;4.75;;;10.30;99.90;;;;;;5002129;28;20115;-83
2023/05/17 00:17:19;;;;;;;26.77;5.22;;;10.30;99.90;;;;;;4998180;28;20076;-83
2023/05/17 00:19:45;;;;;;;15.05;4.50;;;10.30;99.90;;;;;;4977610;28;20072;-83
2023/05/17 00:22:11;;;;;;;15.75;4.22;;;10.30;99.90;;;;;;5003327;28;20039;-82
2023/05/17 00:24:36;;;;;;;20.83;4.90;;;10.30;99.90;;;;;;4995901;28;20037;-82
2023/05/17 00:27:02;;;;;;;18.70;4.18;;;10.20;99.90;;;;;;4991572;28;20124;-83
2023/05/17 00:29:28;;;;;;;16.50;4.28;;;10.30;99.90;;;;;;4998843;28;20046;-83
2023/05/17 00:31:54;;;;;;;21.00;5.07;;;10.20;99.90;;;;;;4966647;28;20452;-82
2023/05/17 00:34:19;;;;;;;14.57;4.22;;;10.20;99.90;;;;;;5018187;28;20025;-82
2023/05/17 00:36:45;;;;;;;19.98;4.90;;;9.70;99.90;;;;;;5018394;28;20123;-82
2023/05/17 00:39:11;;;;;;;22.80;3.88;;;10.10;99.90;;;;;;5002240;28;20086;-82
2023/05/17 00:41:36;;;;;;;22.48;5.10;;;10.10;99.90;;;;;;5001913;28;20083;-82
2023/05/17 00:44:02;;;;;;;20.65;4.18;;;10.00;99.90;;;;;;4999239;28;20049;-82
2023/05/17 00:46:28;;;;;;;19.77;3.90;;;10.00;99.90;;;;;;5016250;28;20604;-82
2023/05/17 00:48:54;;;;;;;15.77;3.17;;;9.90;99.90;;;;;;5001784;28;20041;-83
2023/05/17 00:51:20;;;;;;;20.35;3.55;;;9.80;99.90;;;;;;5006079;28;20471;-83
2023/05/17 00:53:46;;;;;;;17.58;3.67;;;9.80;99.90;;;;;;5022708;28;20142;-83
2023/05/17 00:56:12;;;;;;;16.33;3.75;;;9.70;99.90;;;;;;5005655;28;20045;-83
2023/05/17 00:58:39;;;;;;;18.65;4.13;;;9.70;99.90;;;;;;5029503;28;20034;-82
2023/05/17 01:01:05;;;;;;;17.85;4.05;;;9.70;99.90;;;;;;5022348;28;20041;-82
2023/05/17 01:03:31;;;;;;;18.23;4.03;;;9.50;99.90;;;;;;4997294;28;20044;-82
2023/05/17 01:05:57;;;;;;;20.55;4.13;;;9.60;99.90;;;;;;4971050;28;20045;-84
2023/05/17 01:08:23;;;;;;;19.70;4.00;;;9.50;99.90;;;;;;5004084;28;20489;-82
2023/05/17 01:11:18;;;;;;;27.65;4.78;;;9.40;99.90;;;;;;5004595;28;20495;-84
2023/05/17 01:13:47;;;;;;;22.40;4.45;;;9.40;99.90;;;;;;5016716;28;20041;-82
2023/05/17 01:16:22;;;;;;;16.73;3.28;;;9.30;99.90;;;;;;5019516;28;20033;-82
2023/05/17 01:19:18;;;;;;;19.35;3.60;;;9.30;99.90;;;;;;5009107;28;20033;-82
2023/05/17 01:22:16;;;;;;;22.10;3.92;;;9.20;99.90;;;;;;5018492;28;20041;-82
2023/05/17 01:24:50;;;;;;;23.00;4.22;;;9.20;99.90;;;;;;4975202;28;20124;-81
2023/05/17 01:27:17;;;;;;;19.23;3.60;;;9.10;99.90;;;;;;5017128;28;20489;-83
2023/05/17 01:29:44;;;;;;;20.17;3.58;;;9.10;99.90;;;;;;5005384;28;20044;-81
2023/05/17 01:32:11;;;;;;;14.60;3.75;;;9.10;99.90;;;;;;5005396;28;20087;-83
2023/05/17 01:34:37;;;;;;;19.15;3.22;;;9.10;99.90;;;;;;5022105;28;20039;-82
2023/05/17 01:37:03;;;;;;;17.02;3.10;;;9.00;99.90;;;;;;5004481;28;20041;-82
2023/05/17 01:39:29;;;;;;;19.48;4.32;;;9.00;99.90;;;;;;4985013;28;20041;-83
2023/05/17 01:42:26;;;;;;;13.10;3.17;;;9.00;99.90;;;;;;5011856;28;20087;-83
2023/05/17 01:45:21;;;;;;;16.30;3.53;;;8.90;99.90;;;;;;5020716;28;20048;-83
2023/05/17 01:48:10;;;;;;;20.92;3.40;;;8.90;99.90;;;;;;5037003;28;20481;-83
2023/05/17 01:50:38;;;;;;;19.38;3.58;;;8.90;99.90;;;;;;5021257;28;20045;-82
2023/05/17 01:53:28;;;;;;;18.40;3.15;;;8.80;99.90;;;;;;5021601;28;20472;-83
2023/05/17 01:56:00;;;;;;;22.35;3.67;;;8.80;99.90;;;;;;5027795;28;20033;-81
2023/05/17 01:58:28;;;;;;;20.70;3.53;;;8.70;99.90;;;;;;5006517;28;20053;-81
2023/05/17 02:00:56;;;;;;;22.05;3.83;;;8.90;99.90;;;;;;5007804;28;20052;-83
2023/05/17 02:03:23;;;;;;;22.33;3.78;;;9.60;99.90;;;;;;5015611;28;20098;-82
2023/05/17 02:05:49;;;;;;;15.43;2.90;;;8.70;99.90;;;;;;4998414;28;20033;-82
2023/05/17 02:08:15;;;;;;;17.42;4.47;;;8.60;99.90;;;;;;5000363;28;20049;-82
2023/05/17 02:10:40;;;;;;;23.58;4.07;;;8.60;99.90;;;;;;4970116;28;20253;-82
2023/05/17 02:13:06;;;;;;;16.75;3.35;;;8.60;99.90;;;;;;4982529;28;20042;-83
2023/05/17 02:15:32;;;;;;;25.77;4.30;;;8.50;99.90;;;;;;5007650;28;20095;-82
2023/05/17 02:17:57;;;;;;;19.58;3.80;;;8.50;99.90;;;;;;5011601;28;20037;-83
2023/05/17 02:20:23;;;;;;;19.80;3.38;;;8.50;99.90;;;;;;5004391;28;20096;-82
2023/05/17 02:22:49;;;;;;;20.58;3.70;;;8.40;99.90;;;;;;5005502;28;20037;-82
2023/05/17 02:25:15;;;;;;;19.15;3.38;;;8.40;99.90;;;;;;5003243;28;20048;-83
2023/05/17 02:27:40;;;;;;;19.60;2.88;;;8.40;99.90;;;;;;5001546;28;20171;-81
2023/05/17 02:30:07;;;;;;;14.80;3.38;;;8.40;99.90;;;;;;5000121;28;20045;-83
2023/05/17 02:32:33;;;;;;;20.10;3.70;;;8.40;99.90;;;;;;5019113;28;20033;-81
2023/05/17 02:34:58;;;;;;;13.77;3.50;;;8.50;99.90;;;;;;5005817;28;20044;-83
2023/05/17 02:37:24;;;;;;;18.42;3.53;;;8.30;99.90;;;;;;5014480;28;20037;-83
2023/05/17 02:39:50;;;;;;;21.58;3.25;;;8.40;99.90;;;;;;4995730;28;20049;-82
2023/05/17 02:42:16;;;;;;;22.83;3.95;;;8.20;99.90;;;;;;5030537;28;20082;-83
2023/05/17 02:44:42;;;;;;;21.15;3.67;;;8.20;99.90;;;;;;5004192;28;20048;-82
2023/05/17 02:47:08;;;;;;;16.80;3.78;;;8.20;99.90;;;;;;4997437;28;20037;-82
2023/05/17 02:49:33;;;;;;;20.42;3.72;;;8.20;99.90;;;;;;4992145;28;20029;-83
2023/05/17 02:51:59;;;;;;;19.42;3.30;;;8.30;99.90;;;;;;5009924;28;20106;-83
2023/05/17 02:54:25;;;;;;;19.90;3.67;;;8.30;99.90;;;;;;4986523;28;20041;-83
2023/05/17 02:56:51;;;;;;;18.90;3.20;;;9.00;99.90;;;;;;4982446;28;20043;-82
2023/05/17 02:59:17;;;;;;;17.15;3.17;;;8.30;99.90;;;;;;4990036;28;20034;-82
2023/05/17 03:01:42;;;;;;;17.83;3.20;;;8.30;99.90;;;;;;4995567;28;20048;-82
2023/05/17 03:04:08;;;;;;;23.10;3.72;;;8.40;99.90;;;;;;5019108;28;20128;-82
2023/05/17 03:06:34;;;;;;;15.15;3.60;;;8.40;99.90;;;;;;5002798;28;20040;-83
2023/05/17 03:08:59;;;;;;;18.48;3.83;;;8.40;99.90;;;;;;5014262;28;20052;-82
2023/05/17 03:11:25;;;;;;;18.27;3.72;;;8.40;99.90;;;;;;5023921;28;20110;-82
2023/05/17 03:13:51;;;;;;;19.45;3.55;;;8.40;99.90;;;;;;5001993;28;20042;-82
2023/05/17 03:16:17;;;;;;;18.17;3.53;;;8.30;99.90;;;;;;5012404;28;20482;-83
2023/05/17 03:18:43;;;;;;;15.50;3.53;;;8.30;99.90;;;;;;4990433;28;20040;-82
2023/05/17 03:21:09;;;;;;;17.90;3.10;;;8.30;99.90;;;;;;5019381;28;20041;-82
2023/05/17 03:23:34;;;;;;;18.00;3.70;;;8.30;99.90;;;;;;4975910;28;20120;-82
2023/05/17 03:26:00;;;;;;;19.30;3.47;;;8.30;99.90;;;;;;5007082;28;20392;-82
2023/05/17 03:28:26;;;;;;;21.42;4.10;;;8.30;99.90;;;;;;5002011;28;20497;-82
2023/05/17 03:30:52;;;;;;;23.25;3.78;;;8.30;99.90;;;;;;5000955;28;20038;-83
2023/05/17 03:33:18;;;;;;;17.33;3.13;;;8.70;99.90;;;;;;4998451;28;20117;-83
2023/05/17 03:35:45;;;;;;;21.48;3.95;;;8.30;99.90;;;;;;5005012;28;20045;-82
2023/05/17 03:38:12;;;;;;;18.25;3.13;;;8.20;99.90;;;;;;5016375;28;20402;-82
2023/05/17 03:40:37;;;;;;;14.20;3.78;;;8.30;99.90;;;;;;4987542;28;20053;-83
2023/05/17 03:43:03;;;;;;;19.27;3.85;;;8.30;99.90;;;;;;4980985;28;20038;-82
2023/05/17 03:45:29;;;;;;;14.00;3.08;;;8.30;99.90;;;;;;4997024;28;20496;-83
2023/05/17 03:47:55;;;;;;;15.75;3.33;;;8.30;99.90;;;;;;5014227;28;20045;-84
2023/05/17 03:50:21;;;;;;;22.58;3.53;;;8.20;99.90;;;;;;4997739;28;20052;-83
2023/05/17 03:52:47;;;;;;;18.58;3.80;;;8.20;99.90;;;;;;5002713;28;20034;-83
2023/05/17 03:55:13;;;;;;;21.60;3.78;;;8.20;99.90;;;;;;4996265;28;20053;-82
2023/05/17 03:57:39;;;;;;;16.15;3.25;;;8.20;99.90;;;;;;5004289;28;20128;-82
2023/05/17 04:00:08;;;;;;;22.13;3.70;;;8.20;99.90;;;;;;4996717;28;20073;-82
2023/05/17 04:02:34;;;;;;;14.50;3.35;;;8.20;99.90;;;;;;4996783;28;20401;-82
2023/05/17 04:05:00;;;;;;;20.15;3.10;;;8.10;99.90;;;;;;4963685;28;20116;-82
2023/05/17 04:07:26;;;;;;;17.88;4.20;;;8.10;99.90;;;;;;4993611;28;20033;-81
2023/05/17 04:09:52;;;;;;;21.58;3.53;;;8.10;99.90;;;;;;5015463;28;20077;-81
2023/05/17 04:12:17;;;;;;;15.05;3.35;;;8.10;99.90;;;;;;4999565;28;20069;-82
2023/05/17 04:14:43;;;;;;;19.65;3.53;;;8.10;99.90;;;;;;4975001;28;20070;-82
2023/05/17 04:17:09;;;;;;;11.88;2.97;;;8.00;99.90;;;;;;4997486;28;20048;-83
2023/05/17 04:19:35;;;;;;;14.85;2.80;;;8.00;99.90;;;;;;4997012;28;20072;-82
2023/05/17 04:22:00;;;;;;;17.15;3.38;;;8.00;99.90;;;;;;4974193;28;20042;-83
2023/05/17 04:24:26;;;;;;;20.70;4.00;;;8.00;99.90;;;;;;4984411;28;20034;-83
2023/05/17 04:26:52;;;;;;;16.92;4.32;;;8.90;99.90;;;;;;4993680;28;20037;-82
2023/05/17 04:29:17;;;;;;;18.10;3.75;;;8.00;99.90;;;;;;4995926;28;20039;-82
2023/05/17 04:31:43;;;;;;;18.60;3.88;;;8.40;99.90;;;;;;4979499;28;20474;-82
2023/05/17 04:34:09;;;;;;;23.00;3.30;;;8.00;99.90;;;;;;4998562;28;20041;-82
2023/05/17 04:36:34;;;;;;;20.15;3.60;;;7.90;99.90;;;;;;5007245;28;20106;-82
2023/05/17 04:39:02;;;;;;;17.35;3.40;;;7.90;99.90;;;;;;4996835;28;20611;-82
2023/05/17 04:41:27;;;;;;;14.48;3.25;;;7.90;99.90;;;;;;5021812;28;20044;-81
2023/05/17 04:43:53;;;;;;;20.13;3.58;;;7.90;99.90;;;;;;5002358;28;20045;-81
2023/05/17 04:46:19;;;;;;;17.65;3.60;;;7.90;99.90;;;;;;4988746;28;20080;-81
2023/05/17 04:48:45;;;;;;;19.25;3.10;;;7.90;99.90;;;;;;4998877;28;20041;-82
2023/05/17 04:51:11;;;;;;;16.30;3.28;;;7.90;99.90;;;;;;4999699;28;20128;-82
2023/05/17 04:53:37;;;;;;;21.58;3.45;;;7.90;99.90;;;;;;5015428;28;20516;-82
2023/05/17 04:56:03;;;;;;;14.13;2.80;;;7.90;99.90;;;;;;5018264;28;20040;-82
2023/05/17 04:58:28;;;;;;;16.08;3.42;;;8.00;99.90;;;;;;4986012;28;20607;-82
2023/05/17 05:00:55;;;;;;;14.88;2.78;;;8.00;99.90;;;;;;5002618;28;20124;-83
2023/05/17 05:03:22;;;;;;;18.42;4.00;;;8.10;99.90;;;;;;5018763;28;20048;-83
2023/05/17 05:05:47;;;;;;;16.30;3.42;;;8.40;99.90;;;;;;5017650;28;20044;-82
2023/05/17 05:08:13;;;;;;;22.60;4.57;;;8.20;99.90;;;;;;4973609;28;20041;-81
2023/05/17 05:10:39;;;;;;;14.57;3.10;;;8.30;99.90;;;;;;4998327;28;20033;-82
2023/05/17 05:13:04;;;;;;;19.58;3.22;;;8.40;99.90;;;;;;4987014;28;20036;-83
2023/05/17 05:15:31;;;;;;;13.80;3.03;;;8.60;99.90;;;;;;4995964;28;20069;-82
2023/05/17 05:17:57;;;;;;;15.68;2.90;;;8.60;99.90;;;;;;4980715;28;20453;-82
2023/05/17 05:20:22;;;;;;;10.43;2.60;;;8.40;99.90;;;;;;4988629;28;20125;-82
2023/05/17 05:22:48;;;;;;;16.42;2.53;;;8.50;99.90;;;;;;5007664;28;20544;-82
2023/05/17 05:25:14;;;;;;;14.98;2.22;;;8.60;99.90;;;;;;4973926;28;20047;-82
2023/05/17 05:27:40;;;;;;;17.40;3.22;;;8.60;99.90;;;;;;5011954;28;20095;-82
2023/05/17 05:30:06;;;;;;;18.45;2.83;;;8.60;99.90;;;;;;4981854;28;20042;-82
2023/05/17 05:32:32;;;;;;;14.70;2.60;;;8.70;99.90;;;;;;5013728;28;20036;-82
2023/05/17 05:34:58;;;;;;;12.20;2.35;;;8.70;99.90;;;;;;4998667;28;20107;-82
2023/05/17 05:37:24;;;;;;;14.27;2.50;;;8.80;99.90;;;;;;4999803;28;20036;-82
2023/05/17 05:39:50;;;;;;;11.20;2.40;;;8.90;99.90;;;;;;5001138;28;20041;-81
2023/05/17 05:42:15;;;;;;;12.48;2.60;;;8.90;99.90;;;;;;5019049;28;20132;-82
2023/05/17 05:44:41;;;;;;;9.45;2.20;;;9.00;99.90;;;;;;5043729;28;20124;-82
2023/05/17 05:47:07;;;;;;;8.52;1.92;;;9.00;99.90;;;;;;4989069;28;20120;-82
2023/05/17 05:49:32;;;;;;;14.68;2.90;;;9.00;99.90;;;;;;5017591;28;20041;-82
2023/05/17 05:51:58;;;;;;;11.82;2.55;;;9.00;99.90;;;;;;5018942;28;20049;-82
2023/05/17 05:54:24;;;;;;;15.73;2.40;;;9.10;99.90;;;;;;5019524;28;20095;-83
2023/05/17 05:56:50;;;;;;;8.43;2.05;;;9.10;99.90;;;;;;5026813;28;20041;-83
2023/05/17 05:59:16;;;;;;;11.07;1.88;;;9.10;99.90;;;;;;5008801;28;20037;-82
2023/05/17 06:01:42;;;;;;;8.68;1.50;;;9.10;99.90;;;;;;4985305;28;20432;-83
2023/05/17 06:04:08;;;;;;;12.63;1.92;;;9.20;99.90;;;;;;5038665;28;20041;-83
2023/05/17 06:06:34;;;;;;;14.60;2.03;;;9.20;99.90;;;;;;4995945;28;20511;-82
2023/05/17 06:09:00;;;;;;;8.65;2.15;;;9.30;99.90;;;;;;4995667;28;20033;-82
2023/05/17 06:11:26;;;;;;;10.80;2.00;;;9.40;99.90;;;;;;5001749;28;20485;-81
2023/05/17 06:13:51;;;;;;;9.40;2.00;;;9.40;99.90;;;;;;5003302;28;20071;-82
2023/05/17 06:16:17;;;;;;;12.20;2.25;;;9.50;99.90;;;;;;5019761;28;20088;-83
2023/05/17 06:18:43;;;;;;;14.30;1.88;;;9.70;99.90;;;;;;4999657;28;20099;-83
2023/05/17 06:21:08;;;;;;;11.45;1.77;;;9.60;99.90;;;;;;4999426;28;20041;-83
2023/05/17 06:23:34;;;;;;;9.95;1.65;;;9.60;99.90;;;;;;5019176;28;20041;-82
2023/05/17 06:26:00;;;;;;;9.52;2.10;;;9.70;99.90;;;;;;4998974;28;20041;-83
2023/05/17 06:28:26;;;;;;;9.93;1.65;;;9.70;99.90;;;;;;5014835;28;20079;-81
2023/05/17 06:30:51;;;;;;;14.10;2.22;;;9.80;99.90;;;;;;5003822;28;20037;-82
2023/05/17 06:33:17;;;;;;;9.60;2.22;;;9.80;99.90;;;;;;4979840;28;20087;-82
2023/05/17 06:35:43;;;;;;;14.57;2.50;;;9.90;99.90;;;;;;4988269;28;20490;-83
2023/05/17 06:38:08;;;;;;;8.18;1.80;;;9.90;99.90;;;;;;4982162;28;20041;-82
2023/05/17 06:40:34;;;;;;;11.85;2.08;;;10.00;99.90;;;;;;4992964;28;20048;-83
2023/05/17 06:43:01;;;;;;;12.35;2.30;;;10.00;99.90;;;;;;5001148;28;20041;-83
2023/05/17 06:45:27;;;;;;;9.55;2.08;;;10.10;99.90;;;;;;4996442;28;20044;-82
2023/05/17 06:47:52;;;;;;;5.22;1.60;;;10.20;99.90;;;;;;5009113;28;20048;-82
2023/05/17 06:50:18;;;;;;;8.02;1.95;;;10.20;99.90;;;;;;5004423;28;20037;-82
2023/05/17 06:52:45;;;;;;;9.00;1.95;;;10.30;99.90;;;;;;4977420;28;20390;-82
2023/05/17 06:55:10;;;;;;;7.85;1.83;;;10.50;99.90;;;;;;4998084;28;20117;-82
2023/05/17 06:57:36;;;;;;;9.10;1.70;;;10.40;99.90;;;;;;4995993;28;20541;-83
2023/05/17 07:00:05;;;;;;;9.77;1.58;;;10.40;99.90;;;;;;5002784;28;20037;-83
2023/05/17 07:02:31;;;;;;;15.45;2.20;;;10.50;99.90;;;;;;5009189;28;20041;-83
2023/05/17 07:04:57;;;;;;;9.20;2.05;;;10.70;99.90;;;;;;5019619;28;20114;-82
2023/05/17 07:07:23;;;;;;;12.98;1.95;;;10.70;99.90;;;;;;4986353;28;20045;-83
2023/05/17 07:09:48;;;;;;;10.75;2.10;;;10.60;99.90;;;;;;5022040;28;20037;-82
2023/05/17 07:12:15;;;;;;;8.65;1.50;;;10.70;99.90;;;;;;5030214;28;20041;-83
2023/05/17 07:14:41;;;;;;;9.70;2.28;;;10.80;99.90;;;;;;5002971;28;20091;-83
2023/05/17 07:17:06;;;;;;;14.07;2.20;;;10.80;99.90;;;;;;5033270;28;21359;-83
2023/05/17 07:19:32;;;;;;;12.52;2.22;;;10.80;99.90;;;;;;5001991;28;20533;-83
2023/05/17 07:21:58;;;;;;;12.77;1.90;;;10.90;99.90;;;;;;4984247;28;20124;-82
2023/05/17 07:24:24;;;;;;;10.50;2.13;;;11.00;99.90;;;;;;5015722;28;20075;-82
2023/05/17 07:26:49;;;;;;;9.93;2.00;;;11.00;99.90;;;;;;4986461;28;20049;-82
2023/05/17 07:29:15;;;;;;;10.43;1.60;;;11.10;99.90;;;;;;5001513;28;20462;-82
2023/05/17 07:31:41;;;;;;;10.38;2.13;;;11.30;99.90;;;;;;4985177;28;20037;-82
2023/05/17 07:34:07;;;;;;;10.00;1.92;;;11.80;99.90;;;;;;4967507;28;20108;-83
2023/05/17 07:36:32;;;;;;;7.47;1.92;;;12.30;99.90;;;;;;5004658;28;20065;-82
2023/05/17 07:38:58;;;;;;;9.65;1.75;;;12.80;99.90;;;;;;5013743;28;20048;-83
2023/05/17 07:41:24;;;;;;;6.30;1.60;;;13.10;99.90;;;;;;5019722;28;20131;-82
2023/05/17 07:43:50;;;;;;;9.48;2.10;;;13.30;99.90;;;;;;5002303;28;20034;-82
2023/05/17 07:46:16;;;;;;;9.18;2.47;;;13.30;99.90;;;;;;4999301;28;20040;-82
2023/05/17 07:48:42;;;;;;;10.68;2.13;;;13.40;99.90;;;;;;4967303;28;20500;-82
2023/05/17 07:51:08;;;;;;;10.45;1.90;;;13.70;99.90;;;;;;5000080;28;20037;-82
2023/05/17 07:53:33;;;;;;;7.70;1.77;;;13.80;99.90;;;;;;4999497;28;20033;-82
2023/05/17 07:55:59;;;;;;;8.90;2.45;;;13.80;99.90;;;;;;5007427;28;20049;-82
2023/05/17 07:58:25;;;;;;;9.75;1.60;;;13.80;99.90;;;;;;5018917;28;20052;-82
2023/05/17 08:00:50;;;;;;;9.25;2.10;;;13.70;99.90;;;;;;5002839;28;20040;-80
2023/05/17 08:03:16;;;;;;;10.88;1.90;;;13.50;99.90;;;;;;5001452;28;20041;-81
2023/05/17 08:05:42;;;;;;;12.27;2.22;;;13.30;99.90;;;;;;4986526;28;20447;-81
2023/05/17 08:08:07;;;;;;;11.77;2.10;;;13.00;99.90;;;;;;5002625;28;20132;-82
2023/05/17 08:10:36;;;;;;;12.30;2.30;;;12.80;99.90;;;;;;4986860;28;20040;-82
2023/05/17 08:13:03;;;;;;;14.55;2.38;;;12.70;99.90;;;;;;5031171;28;20045;-81
2023/05/17 08:15:29;;;;;;;12.00;2.10;;;12.60;99.90;;;;;;4999549;28;20049;-81
2023/05/17 08:17:55;;;;;;;12.13;2.65;;;12.70;99.90;;;;;;5031598;28;20044;-81
2023/05/17 08:20:21;;;;;;;11.55;2.30;;;12.80;99.90;;;;;;5015628;28;20041;-81
2023/05/17 08:22:47;;;;;;;9.20;2.42;;;12.70;99.90;;;;;;5018505;28;20029;-81
2023/05/17 08:25:13;;;;;;;12.85;2.47;;;12.60;99.90;;;;;;5021493;28;20493;-80
2023/05/17 08:27:39;;;;;;;15.25;2.78;;;12.60;99.90;;;;;;4988283;28;20045;-81
2023/05/17 08:30:05;;;;;;;11.10;2.50;;;12.60;99.90;;;;;;5018957;28;20132;-82
2023/05/17 08:32:31;;;;;;;8.48;2.28;;;12.80;99.90;;;;;;5001707;28;20037;-81
2023/05/17 08:34:57;;;;;;;8.82;2.22;;;13.10;99.90;;;;;;5002612;28;20063;-81
2023/05/17 08:37:23;;;;;;;16.58;3.10;;;13.40;99.90;;;;;;4986055;28;20113;-82
2023/05/17 08:39:50;;;;;;;12.02;2.03;;;13.60;99.10;;;;;;4986307;28;20052;-82
2023/05/17 08:42:21;;;;;;;17.33;2.65;;;13.70;98.20;;;;;;5018625;28;20188;-81
2023/05/17 08:44:48;;;;;;;8.57;1.92;;;13.80;97.50;;;;;;5015191;28;20540;-83
2023/05/17 08:47:24;;;;;;;11.32;2.45;;;13.90;97.30;;;;;;4979273;28;20103;-82
2023/05/17 08:49:51;;;;;;;16.80;2.70;;;13.80;96.80;;;;;;4980567;28;20038;-82
2023/05/17 08:52:17;;;;;;;8.13;2.03;;;13.70;96.90;;;;;;4992390;28;20042;-80
2023/05/17 08:54:42;;;;;;;6.70;1.60;;;13.50;96.80;;;;;;4982360;28;20120;-81
2023/05/17 08:57:10;;;;;;;9.45;1.95;;;13.40;96.90;;;;;;4997989;28;20043;-82
2023/05/17 08:59:37;;;;;;;10.13;2.13;;;13.30;95.90;;;;;;5019216;28;20485;-82
2023/05/17 09:02:04;;;;;;;15.48;3.03;;;13.20;96.60;;;;;;5018765;28;20056;-80
2023/05/17 09:04:30;;;;;;;8.40;2.33;;;13.10;96.30;;;;;;5000438;28;20037;-81
2023/05/17 09:06:56;;;;;;;7.45;1.75;;;13.10;96.70;;;;;;5018928;28;20044;-81
2023/05/17 09:09:22;;;;;;;10.27;2.25;;;13.20;96.20;;;;;;5002330;28;20048;-82
2023/05/17 09:11:48;;;;;;;8.77;2.38;;;13.10;95.80;;;;;;5021204;28;20033;-82
2023/05/17 09:14:17;;;;;;;9.20;1.92;;;13.20;95.80;;;;;;4985675;28;20091;-81
2023/05/17 09:16:43;;;;;;;10.60;2.00;;;13.30;95.50;;;;;;5006304;28;20400;-81
2023/05/17 09:19:15;;;;;;;14.70;2.97;;;13.50;96.10;;;;;;5005228;28;20124;-82
2023/05/17 09:21:46;;;;;;;13.60;2.33;;;13.70;96.30;;;;;;5022179;28;20132;-82
2023/05/17 09:24:12;;;;;;;12.13;2.15;;;13.60;94.50;;;;;;5037869;28;20045;-81
2023/05/17 09:26:42;;;;;;;15.80;2.90;;;13.50;95.00;;;;;;5022268;28;20045;-82
2023/05/17 09:29:10;;;;;;;9.63;2.10;;;13.40;95.10;;;;;;5020063;28;20056;-81
2023/05/17 09:31:36;;;;;;;13.95;2.58;;;13.30;95.20;;;;;;5017670;28;20106;-82
2023/05/17 09:34:01;;;;;;;11.48;2.17;;;13.20;95.00;;;;;;4985971;28;20041;-82
2023/05/17 09:36:27;;;;;;;10.55;2.47;;;13.20;95.30;;;;;;4970048;28;20038;-81
2023/05/17 09:39:00;;;;;;;14.95;2.80;;;13.00;95.40;;;;;;5019066;28;20045;-81
2023/05/17 09:41:27;;;;;;;14.32;2.88;;;12.90;95.60;;;;;;5022165;28;20081;-82
2023/05/17 09:43:56;;;;;;;11.70;2.50;;;13.00;96.20;;;;;;5021940;28;20138;-82
2023/05/17 09:46:22;;;;;;;11.13;2.45;;;13.10;95.70;;;;;;5038446;28;20320;-82
2023/05/17 09:48:57;;;;;;;7.72;2.22;;;13.30;96.50;;;;;;4989313;28;20037;-82
2023/05/17 09:51:36;;;;;;;11.98;2.47;;;13.50;95.10;;;;;;4988470;28;20037;-82
2023/05/17 09:54:02;;;;;;;11.35;2.10;;;13.40;94.70;;;;;;5021794;28;20060;-81
2023/05/17 09:56:31;;;;;;;14.65;2.20;;;13.40;95.00;;;;;;5038110;28;20482;-81
2023/05/17 09:59:00;;;;;;;9.68;2.38;;;13.20;95.50;;;;;;5021826;28;20048;-80
2023/05/17 10:01:28;;;;;;;12.20;2.75;;;13.10;95.10;;;;;;5004863;28;20033;-82
2023/05/17 10:03:54;;;;;;;7.70;1.73;;;13.00;95.00;;;;;;5021431;28;20037;-81
2023/05/17 10:06:24;;;;;;;13.40;2.42;;;13.00;95.10;;;;;;5005148;28;20048;-82
2023/05/17 10:08:54;;;;;;;13.05;2.65;;;13.10;95.40;;;;;;5004900;28;20052;-81
2023/05/17 10:11:33;;;;;;;8.10;2.13;;;13.20;95.60;;;;;;5021084;28;20493;-82
2023/05/17 10:14:17;;;;;;;8.18;2.30;;;13.50;94.30;;;;;;5005094;28;20033;-82
2023/05/17 10:16:44;;;;;;;9.10;2.17;;;13.50;94.20;;;;;;5037472;28;20071;-81
2023/05/17 10:19:11;;;;;;;10.05;2.15;;;13.60;94.60;;;;;;5037553;28;20048;-82
2023/05/17 10:21:38;;;;;;;11.32;2.50;;;13.60;94.30;;;;;;5020184;28;20045;-82
2023/05/17 10:24:05;;;;;;;13.20;2.65;;;13.70;94.60;;;;;;5004843;28;20040;-81
2023/05/17 10:26:31;;;;;;;20.33;2.78;;;13.80;95.20;;;;;;4993338;28;20401;-82
2023/05/17 10:29:00;;;;;;;15.75;2.50;;;14.00;95.30;;;;;;5029712;28;20056;-83
2023/05/17 10:31:28;;;;;;;8.35;2.00;;;14.00;95.30;;;;;;5003507;28;20028;-82
2023/05/17 10:33:54;;;;;;;8.40;2.00;;;13.90;94.60;;;;;;5014633;28;20029;-83
2023/05/17 10:36:23;;;;;;;15.23;3.08;;;13.80;94.60;;;;;;4990061;28;20371;-83
2023/05/17 10:38:49;;;;;;;10.93;2.50;;;13.80;95.70;;;;;;5000962;28;20045;-82
2023/05/17 10:41:17;;;;;;;14.82;3.17;;;13.70;95.30;;;;;;5015225;28;20045;-83
2023/05/17 10:43:44;;;;;;;16.30;3.17;;;13.80;95.80;;;;;;5004336;28;20045;-83
2023/05/17 10:46:21;;;;;;;12.02;2.50;;;13.80;95.90;;;;;;5021066;28;20048;-83
2023/05/17 10:48:51;;;;;;;12.02;2.95;;;13.80;96.10;;;;;;5018573;28;20045;-83
2023/05/17 10:51:23;;;;;;;12.75;2.78;;;14.00;96.00;;;;;;5036374;28;20509;-82
2023/05/17 10:54:09;;;;;;;11.50;2.50;;;14.00;95.50;;;;;;5025032;28;20041;-82
2023/05/17 10:56:39;;;;;;;14.88;2.72;;;14.00;95.80;;;;;;5021522;28;20036;-84
2023/05/17 10:59:28;;;;;;;12.93;3.17;;;13.80;95.90;;;;;;5017730;28;20040;-84
2023/05/17 11:01:54;;;;;;;9.77;2.13;;;13.70;96.40;;;;;;5013775;28;20092;-82
2023/05/17 11:04:25;;;;;;;9.98;2.38;;;13.80;96.60;;;;;;5008634;28;20041;-82
2023/05/17 11:06:53;;;;;;;14.00;2.45;;;13.90;96.30;;;;;;5017935;28;20095;-83
2023/05/17 11:09:22;;;;;;;11.48;2.25;;;13.90;96.20;;;;;;5036887;28;20092;-83
2023/05/17 11:12:04;;;;;;;8.18;1.77;;;14.00;95.70;;;;;;5025914;28;20037;-82
2023/05/17 11:14:46;;;;;;;14.30;2.40;;;14.20;95.50;;;;;;5017913;28;20492;-82
2023/05/17 11:17:17;;;;;;;13.85;2.55;;;14.30;93.70;;;;;;5020896;28;20384;-82
2023/05/17 11:19:57;;;;;;;17.48;2.95;;;14.20;94.80;;;;;;5035440;28;20040;-82
2023/05/17 11:22:32;;;;;;;12.80;2.47;;;14.20;95.30;;;;;;4998468;28;20091;-82
2023/05/17 11:25:00;;;;;;;11.75;2.40;;;14.10;95.50;;;;;;5017247;28;20047;-82
2023/05/17 11:27:34;;;;;;;10.05;2.30;;;14.00;95.50;;;;;;5017331;28;20089;-82
2023/05/17 11:30:09;;;;;;;9.25;2.10;;;14.00;95.70;;;;;;5000746;28;20389;-82
2023/05/17 11:32:35;;;;;;;11.00;2.72;;;14.00;95.10;;;;;;5017668;28;20139;-82
2023/05/17 11:35:01;;;;;;;12.70;2.08;;;14.00;94.90;;;;;;4984056;28;20088;-83
2023/05/17 11:37:28;;;;;;;9.10;2.10;;;13.90;94.50;;;;;;4995098;28;20474;-82
2023/05/17 11:40:05;;;;;;;9.27;2.20;;;13.90;95.10;;;;;;5020445;28;20106;-82
2023/05/17 11:42:31;;;;;;;6.90;2.00;;;14.00;94.90;;;;;;5033254;28;20037;-82
2023/05/17 11:44:59;;;;;;;13.48;1.98;;;14.20;93.60;;;;;;5019726;28;20120;-83
2023/05/17 11:47:26;;;;;;;7.88;2.05;;;14.30;93.30;;;;;;4999539;28;20042;-82
2023/05/17 11:49:54;;;;;;;8.55;2.03;;;14.20;93.80;;;;;;4998245;28;20044;-83
2023/05/17 11:52:20;;;;;;;9.93;2.20;;;14.20;94.10;;;;;;5016299;28;20044;-83
2023/05/17 11:54:48;;;;;;;6.72;1.90;;;14.30;93.80;;;;;;4998639;28;20482;-83
2023/05/17 11:57:16;;;;;;;6.95;2.05;;;14.40;92.60;;;;;;5018418;28;20040;-82
2023/05/17 11:59:42;;;;;;;11.23;2.03;;;14.40;92.70;;;;;;5002865;28;20037;-82
2023/05/17 12:02:08;;;;;;;8.25;2.10;;;14.40;93.60;;;;;;4994764;28;20072;-84
2023/05/17 12:04:38;;;;;;;8.45;1.90;;;14.50;93.00;;;;;;4999012;28;20042;-83
2023/05/17 12:07:07;;;;;;;9.07;2.42;;;14.70;92.50;;;;;;4998686;28;20544;-82
2023/05/17 12:09:33;;;;;;;7.07;2.08;;;14.80;92.70;;;;;;5019904;28;20148;-82
2023/05/17 12:12:03;;;;;;;11.85;2.13;;;14.80;91.30;;;;;;4999163;28;20485;-82
2023/05/17 12:14:29;;;;;;;7.50;2.00;;;14.80;91.20;;;;;;4989334;28;20166;-84
2023/05/17 12:16:57;;;;;;;12.07;2.20;;;14.80;91.30;;;;;;5026935;28;20119;-83
2023/05/17 12:19:28;;;;;;;9.55;2.28;;;14.80;91.60;;;;;;5017031;28;20069;-84
2023/05/17 12:22:07;;;;;;;8.65;2.20;;;14.80;92.00;;;;;;5014447;28;20037;-83
2023/05/17 12:24:42;;;;;;;10.35;2.03;;;14.90;90.40;;;;;;5005756;28;20518;-83
2023/05/17 12:27:09;;;;;;;10.10;2.17;;;14.80;91.20;;;;;;5006030;28;20057;-84
2023/05/17 12:29:35;;;;;;;9.25;1.80;;;14.80;90.70;;;;;;5012914;28;20041;-83
2023/05/17 12:32:01;;;;;;;6.70;2.03;;;14.90;90.90;;;;;;4998893;28;20052;-83
2023/05/17 12:34:30;;;;;;;6.53;2.00;;;15.00;91.30;;;;;;4998406;28;20028;-83
2023/05/17 12:36:56;;;;;;;7.50;1.85;;;15.20;89.30;;;;;;5034889;28;20037;-84
2023/05/17 12:39:23;;;;;;;9.50;2.17;;;15.30;89.40;;;;;;4999369;28;20041;-82
2023/05/17 12:41:53;;;;;;;11.15;1.80;;;15.40;90.70;;;;;;5033243;28;20120;-83
2023/05/17 12:44:19;;;;;;;8.52;1.70;;;15.70;91.00;;;;;;5034321;28;20033;-83